Time;durP1;ratioP1;P1;durP2;ratioP2;P2;SDS_P1;SDS_P2;PMS_P1;PMS_P2;Temp;Humidity;BMP_temperature;BMP_pressure;BME280_temperature;BME280_humidity;BME280_pressure;Samples;Min_cycle;Max_cycle;Signal;HPM_P1;HPM_P2
2022/07/04 00:00:13;;;;;;;6.23;2.40;;;;;;;20.53;70.05;100732.83;5154497;57;1138931;-83
2022/07/04 00:05:21;;;;;;;5.80;2.27;;;;;;;20.48;70.29;100737.05;5150966;57;1139013;-82
2022/07/04 00:10:27;;;;;;;5.80;2.58;;;;;;;20.41;70.58;100738.80;5152698;57;1139021;-87
2022/07/04 00:15:34;;;;;;;4.50;2.08;;;;;;;20.34;70.67;100733.25;5160270;57;1139060;-84
2022/07/04 00:20:40;;;;;;;2.55;2.00;;;;;;;20.32;71.17;100729.90;5159984;57;1138986;-84
2022/07/04 00:25:46;;;;;;;2.60;1.80;;;;;;;20.28;71.11;100721.89;5103528;56;1139056;-81
2022/07/04 00:30:52;;;;;;;4.42;2.10;;;;;;;20.28;71.34;100728.09;5066465;58;1139076;-79
2022/07/04 00:35:57;;;;;;;3.58;2.27;;;;;;;20.31;71.45;100721.03;5126446;57;1139010;-80
2022/07/04 00:41:04;;;;;;;11.65;2.35;;;;;;;20.34;71.48;100723.84;5153325;57;1139315;-81
2022/07/04 00:46:09;;;;;;;9.23;2.95;;;;;;;20.34;71.48;100720.66;5153479;57;1141155;-81
2022/07/04 00:51:16;;;;;;;4.47;2.50;;;;;;;20.22;71.30;100721.23;5153512;57;1139051;-83
2022/07/04 00:56:24;;;;;;;2.85;2.25;;;;;;;20.15;71.76;100718.44;5146257;57;1139269;-85
2022/07/04 01:01:30;;;;;;;4.70;2.98;;;;;;;20.00;71.82;100716.17;5136438;57;1139007;-82
2022/07/04 01:06:36;;;;;;;6.03;2.92;;;;;;;19.92;72.11;100710.31;5141170;57;1139065;-84
2022/07/04 01:11:42;;;;;;;9.08;2.67;;;;;;;19.90;72.41;100705.63;5182962;56;1139147;-81
2022/07/04 01:16:47;;;;;;;5.00;2.30;;;;;;;19.89;72.41;100692.38;5239777;56;1139143;-84
2022/07/04 01:21:53;;;;;;;3.83;2.47;;;;;;;19.93;72.54;100689.68;5239839;56;1139083;-83
2022/07/04 01:26:59;;;;;;;2.52;2.33;;;;;;;19.96;72.75;100698.73;5170427;56;1139079;-80
2022/07/04 01:32:09;;;;;;;2.40;2.22;;;;;;;20.00;72.83;100696.88;5193963;56;1138985;-86
2022/07/04 01:37:15;;;;;;;4.10;2.55;;;;;;;19.96;72.52;100696.05;5233323;56;1139009;-82
2022/07/04 01:42:20;;;;;;;2.50;2.27;;;;;;;19.92;72.65;100699.58;5239632;56;1139054;-81
2022/07/04 01:47:27;;;;;;;7.58;2.70;;;;;;;19.80;72.75;100690.75;5239632;56;1138990;-83
2022/07/04 01:52:34;;;;;;;5.67;2.87;;;;;;;19.68;72.78;100683.59;5239551;56;1139282;-80
2022/07/04 01:57:40;;;;;;;5.60;3.00;;;;;;;19.63;73.09;100679.24;5145164;56;1139070;-81
2022/07/04 02:02:45;;;;;;;3.25;2.60;;;;;;;19.59;73.31;100680.59;5152460;57;1138935;-82
2022/07/04 02:07:52;;;;;;;4.75;3.20;;;;;;;19.57;73.38;100686.63;5153230;57;1139033;-82
2022/07/04 02:13:03;;;;;;;3.50;2.83;;;;;;;19.61;73.59;100683.94;5150877;57;1139092;-81
2022/07/04 02:18:11;;;;;;;3.13;2.70;;;;;;;19.56;73.59;100673.72;5150028;57;1138962;-80
2022/07/04 02:23:17;;;;;;;6.90;3.30;;;;;;;19.43;74.26;100668.04;5107104;57;1139062;-80
2022/07/04 02:28:23;;;;;;;5.00;3.33;;;;;;;19.30;74.22;100669.92;5189355;56;1139091;-83
2022/07/04 02:33:29;;;;;;;4.15;2.90;;;;;;;19.19;74.84;100668.12;5231477;56;1139270;-81
2022/07/04 02:38:35;;;;;;;6.58;3.02;;;;;;;19.08;75.57;100684.56;5231537;56;1139053;-81
2022/07/04 02:43:40;;;;;;;4.03;2.77;;;;;;;19.02;75.96;100675.85;5232071;56;1138963;-80
2022/07/04 02:48:46;;;;;;;5.92;3.15;;;;;;;19.00;76.07;100681.88;5232172;56;1139038;-83
2022/07/04 02:53:52;;;;;;;4.60;3.35;;;;;;;19.06;76.35;100681.22;5225038;56;1139114;-80
2022/07/04 02:58:57;;;;;;;6.47;3.10;;;;;;;19.10;76.44;100686.55;5103254;57;1139069;-81
2022/07/04 03:04:03;;;;;;;5.97;3.37;;;;;;;19.01;76.67;100675.52;5081022;58;1136985;-83
2022/07/04 03:09:10;;;;;;;6.58;3.15;;;;;;;18.91;76.69;100676.55;5081006;58;1137021;-82
2022/07/04 03:14:15;;;;;;;9.03;3.10;;;;;;;18.87;77.07;100675.70;5158916;57;1137121;-80
2022/07/04 03:19:21;;;;;;;7.15;2.92;;;;;;;18.86;77.71;100677.55;5081055;58;1137167;-82
2022/07/04 03:24:27;;;;;;;7.47;3.65;;;;;;;18.82;77.91;100678.04;5136465;57;1137305;-83
2022/07/04 03:29:33;;;;;;;4.75;3.37;;;;;;;18.79;78.07;100679.20;5217902;56;1136906;-81
2022/07/04 03:34:39;;;;;;;7.17;3.35;;;;;;;18.79;78.29;100683.23;5118654;56;1136943;-82
2022/07/04 03:39:44;;;;;;;4.53;2.60;;;;;;;18.80;78.66;100676.86;5078598;58;1136955;-81
2022/07/04 03:44:52;;;;;;;3.22;2.90;;;;;;;18.86;78.53;100676.70;5078825;58;1137050;-79
2022/07/04 03:49:58;;;;;;;7.85;2.98;;;;;;;18.95;78.58;100683.72;5071001;58;1136889;-82
2022/07/04 03:55:05;;;;;;;3.00;2.80;;;;;;;18.97;78.70;100673.67;5161267;56;1137001;-81
2022/07/04 04:00:11;;;;;;;4.33;2.52;;;;;;;18.97;79.11;100663.78;5167321;56;1137165;-82
2022/07/04 04:05:34;;;;;;;5.17;2.70;;;;;;;19.00;79.11;100675.18;5079262;57;1137268;-84
2022/07/04 04:10:36;;;;;;;2.45;2.22;;;;;;;18.97;79.43;100670.48;5085940;57;1136901;-82
2022/07/04 04:15:42;;;;;;;3.70;2.62;;;;;;;18.99;79.83;100668.98;5152682;57;1137239;-84
2022/07/04 04:20:48;;;;;;;6.08;2.70;;;;;;;19.02;79.89;100672.67;5113507;57;1134910;-82
2022/07/04 04:25:54;;;;;;;3.00;2.33;;;;;;;19.06;80.14;100669.98;5131432;56;1134740;-79
2022/07/04 04:31:00;;;;;;;13.80;2.84;;;;;;;19.11;80.46;100663.59;5075248;57;1138946;-81
2022/07/04 04:36:07;;;;;;;3.34;2.28;;;;;;;19.18;80.58;100664.59;5195010;57;1141226;-82
2022/07/04 04:41:12;;;;;;;2.95;2.47;;;;;;;19.30;80.23;100658.36;5154167;57;1139360;-80
2022/07/04 04:46:18;;;;;;;12.17;2.77;;;;;;;19.42;80.27;100645.41;5154297;57;1139053;-83
2022/07/04 04:51:24;;;;;;;3.64;2.64;;;;;;;19.50;80.01;100647.61;5112945;57;1141064;-81
2022/07/04 04:56:30;;;;;;;3.10;2.45;;;;;;;19.55;79.92;100637.70;5136366;57;1139219;-79
2022/07/04 05:01:36;;;;;;;4.08;2.12;;;;;;;19.64;80.40;100636.14;5052711;58;1139074;-78
2022/07/04 05:06:42;;;;;;;3.75;2.08;;;;;;;19.80;80.35;100639.25;5095764;57;1139062;-82
2022/07/04 05:11:48;;;;;;;3.85;2.40;;;;;;;19.99;79.85;100632.10;5140220;57;1139327;-79
2022/07/04 05:16:54;;;;;;;2.25;2.02;;;;;;;20.12;79.25;100633.36;5139461;57;1139038;-83
2022/07/04 05:22:00;;;;;;;2.35;1.92;;;;;;;20.25;79.75;100620.17;5140267;57;1139046;-81
2022/07/04 05:27:08;;;;;;;4.30;2.47;;;;;;;20.43;79.48;100611.84;5156635;56;1139045;-80
2022/07/04 05:32:15;;;;;;;2.30;2.08;;;;;;;20.49;79.17;100613.28;5158766;56;1139198;-81
2022/07/04 05:37:20;;;;;;;2.77;2.15;;;;;;;20.50;79.20;100602.86;5103639;57;1139057;-81
2022/07/04 05:42:27;;;;;;;8.45;2.15;;;;;;;20.53;79.10;100617.28;5078284;58;1138981;-82
2022/07/04 05:47:33;;;;;;;8.50;2.45;;;;;;;20.61;79.27;100644.61;5078360;57;1139300;-84
2022/07/04 05:52:39;;;;;;;3.62;1.82;;;;;;;20.69;79.54;100659.31;5078224;57;1139213;-81
2022/07/04 05:57:46;;;;;;;6.20;2.30;;;;;;;20.74;80.20;100692.38;5133437;57;1139009;-78
2022/07/04 06:02:52;;;;;;;3.72;2.52;;;;;;;20.75;80.89;100710.18;5141868;57;1139285;-80
2022/07/04 06:07:58;;;;;;;2.70;2.05;;;;;;;20.94;80.79;100715.03;5141967;57;1139069;-81
2022/07/04 06:13:05;;;;;;;8.68;2.15;;;;;;;21.19;79.26;100720.57;5127275;57;1139038;-83
2022/07/04 06:18:12;;;;;;;10.05;2.33;;;;;;;21.30;78.50;100721.97;5077776;58;1139273;-79
2022/07/04 06:23:18;;;;;;;7.87;3.12;;;;;;;21.30;77.59;100734.08;5077803;58;1141054;-81
2022/07/04 06:28:23;;;;;;;4.47;2.20;;;;;;;21.31;77.02;100739.27;5142201;57;1139013;-79
2022/07/04 06:33:29;;;;;;;4.62;2.37;;;;;;;21.48;77.89;100731.04;5138889;57;1139069;-85
2022/07/04 06:38:35;;;;;;;6.25;2.60;;;;;;;21.71;77.06;100737.16;5037702;58;1139117;-83
2022/07/04 06:43:41;;;;;;;7.08;3.12;;;;;;;21.95;76.97;100734.19;5139172;57;1139019;-82
2022/07/04 06:48:47;;;;;;;2.40;2.22;;;;;;;22.17;76.00;100736.44;5146092;57;1139023;-80
2022/07/04 06:53:53;;;;;;;5.92;2.33;;;;;;;22.43;74.94;100737.27;5151731;57;1139277;-77
2022/07/04 06:58:59;;;;;;;4.32;2.76;;;;;;;22.57;73.79;100729.65;5114894;57;1139386;-85
2022/07/04 07:04:07;;;;;;;2.52;2.33;;;;;;;22.61;73.19;100736.30;5094037;57;1139488;-82
2022/07/04 07:09:12;;;;;;;3.37;1.95;;;;;;;22.70;73.95;100730.29;5083237;57;1139011;-77
2022/07/04 07:14:18;;;;;;;5.62;2.47;;;;;;;22.91;74.81;100727.63;5145775;57;1139020;-85
2022/07/04 07:19:24;;;;;;;4.30;2.72;;;;;;;23.12;74.36;100746.98;5124263;56;1139043;-84
2022/07/04 07:24:33;;;;;;;3.20;2.90;;;;;;;22.80;70.23;100769.41;5160297;56;1139184;-81
2022/07/04 07:29:39;;;;;;;8.85;3.40;;;;;;;22.35;71.93;100788.58;5085803;57;1139184;-81
2022/07/04 07:34:45;;;;;;;8.60;2.67;;;;;;;22.06;74.23;100749.05;5202789;56;1139069;-77
2022/07/04 07:39:51;;;;;;;14.93;3.35;;;;;;;22.15;76.49;100757.38;5210420;56;1139049;-83
2022/07/04 07:44:57;;;;;;;12.43;3.55;;;;;;;22.06;76.07;100744.50;5210441;56;1141109;-83
2022/07/04 07:50:04;;;;;;;6.40;2.75;;;;;;;22.03;77.54;100743.52;5210223;56;1139073;-79
2022/07/04 07:55:10;;;;;;;3.55;2.80;;;;;;;22.10;79.69;100730.16;5181365;56;1136890;-82
2022/07/04 08:00:16;;;;;;;13.88;3.22;;;;;;;22.26;79.24;100741.22;5154482;56;1137071;-82
2022/07/04 08:05:22;;;;;;;10.75;3.08;;;;;;;22.24;78.38;100749.49;5165576;56;1138743;-82
2022/07/04 08:10:28;;;;;;;7.42;3.05;;;;;;;22.07;78.15;100757.46;5021665;57;1139001;-81
2022/07/04 08:15:34;;;;;;;5.62;3.10;;;;;;;21.90;77.69;100776.16;5168102;56;1136939;-77
2022/07/04 08:20:40;;;;;;;16.55;2.65;;;;;;;21.74;78.64;100782.05;5201933;56;1136946;-85
2022/07/04 08:25:46;;;;;;;13.15;3.37;;;;;;;21.57;78.82;100746.06;5175576;56;1139047;-79
2022/07/04 08:30:52;;;;;;;16.45;3.67;;;;;;;21.25;79.83;100768.75;5009862;57;1139300;-85
2022/07/04 08:35:58;;;;;;;5.67;2.65;;;;;;;20.94;84.44;100727.97;5154934;56;1139036;-79
2022/07/04 08:41:05;;;;;;;3.95;3.05;;;;;;;20.57;86.73;100724.75;5102406;57;1137099;-81
2022/07/04 08:46:12;;;;;;;7.22;2.62;;;;;;;20.29;89.23;100745.89;5119413;57;1136926;-80
2022/07/04 08:51:26;;;;;;;3.65;2.25;;;;;;;20.21;90.50;100734.34;5072046;57;1137051;-80
2022/07/04 09:01:57;;;;;;;5.60;3.00;;;;;;;20.14;90.47;100729.36;4980638;58;1139231;-83
2022/07/04 09:07:03;;;;;;;4.27;3.47;;;;;;;20.25;92.54;100712.84;5107376;56;1139518;-78
2022/07/04 09:12:11;;;;;;;8.20;3.27;;;;;;;20.35;94.07;100716.95;5121369;57;1139050;-78
2022/07/04 09:17:16;;;;;;;13.03;2.62;;;;;;;20.48;93.35;100716.39;5067756;57;1138999;-78
2022/07/04 09:22:22;;;;;;;4.67;2.95;;;;;;;20.77;94.96;100726.97;5182508;56;1141397;-81
2022/07/04 09:27:44;;;;;;;8.53;3.20;;;;;;;20.94;92.35;100741.41;5202507;56;1139080;-81
2022/07/04 09:33:00;;;;;;;3.72;2.70;;;;;;;21.06;92.37;100743.19;5238117;56;1139157;-79
2022/07/04 09:38:06;;;;;;;5.60;2.50;;;;;;;21.25;91.94;100754.79;5228222;56;1139239;-79
2022/07/04 09:43:15;;;;;;;3.30;2.27;;;;;;;21.62;92.65;100768.73;5185200;56;1139207;-79
2022/07/04 09:48:20;;;;;;;3.83;3.05;;;;;;;21.79;92.58;100785.54;5136702;56;1139157;-78
2022/07/04 09:53:29;;;;;;;7.72;2.20;;;;;;;22.04;93.03;100774.83;5096347;56;1138861;-78
2022/07/04 09:58:36;;;;;;;5.20;2.17;;;;;;;22.40;91.21;100776.22;5116403;56;1139042;-81
2022/07/04 10:03:42;;;;;;;8.73;2.58;;;;;;;22.53;89.25;100782.78;5097682;56;1139157;-80
2022/07/04 10:08:47;;;;;;;4.87;2.42;;;;;;;22.79;89.68;100779.87;5110829;57;1139026;-79
2022/07/04 10:13:53;;;;;;;4.83;2.75;;;;;;;22.93;88.62;100778.66;5184030;56;1138972;-79
2022/07/04 10:18:59;;;;;;;2.87;1.95;;;;;;;23.22;86.89;100781.20;5217404;56;1139159;-79
2022/07/04 10:24:05;;;;;;;5.10;2.33;;;;;;;23.49;84.63;100788.50;5165022;56;1139033;-78
2022/07/04 10:29:16;;;;;;;4.05;2.05;;;;;;;23.62;84.70;100785.08;5205091;56;1139037;-80
2022/07/04 10:34:21;;;;;;;;;;;;;;;23.76;81.96;100786.84;5149047;56;1139053;-79
2022/07/04 10:39:29;;;;;;;3.27;1.82;;;;;;;23.89;81.98;100787.42;5118650;56;976244;-80
2022/07/04 10:44:37;;;;;;;2.20;2.00;;;;;;;24.02;79.39;100789.36;5076178;58;1136998;-79
2022/07/04 10:49:43;;;;;;;3.05;2.35;;;;;;;24.23;80.39;100777.62;5074137;58;1139214;-78
2022/07/04 10:54:50;;;;;;;2.77;2.30;;;;;;;24.29;77.30;100776.86;5128850;57;1139016;-80
2022/07/04 11:00:01;;;;;;;1.67;1.42;;;;;;;24.50;77.74;100776.70;5148167;57;1139273;-81
2022/07/04 11:05:11;;;;;;;2.10;1.57;;;;;;;24.87;75.00;100775.34;5148622;56;1139065;-82
2022/07/04 11:15:35;;;;;;;3.15;1.75;;;;;;;25.40;71.64;100770.79;5080119;57;1139033;-80
2022/07/04 11:20:47;;;;;;;1.90;1.72;;;;;;;25.48;71.07;100769.23;5066702;58;1139129;-79
2022/07/04 11:25:56;;;;;;;3.72;1.85;;;;;;;25.70;71.30;100774.42;5124152;56;1136950;-82
2022/07/04 11:31:02;;;;;;;5.08;1.80;;;;;;;25.91;71.02;100762.81;5026267;58;1137035;-81
2022/07/04 11:36:21;;;;;;;2.20;1.60;;;;;;;26.14;68.52;100762.30;5106754;57;1136990;-80
2022/07/04 11:47:12;;;;;;;2.92;1.70;;;;;;;26.45;66.70;100766.98;5062958;57;1136971;-78
2022/07/04 11:52:21;;;;;;;1.30;1.30;;;;;;;26.58;66.32;100760.67;5160129;57;1136942;-81
2022/07/04 11:57:36;;;;;;;1.77;1.67;;;;;;;26.79;65.70;100760.83;5160196;57;1134872;-81
2022/07/04 12:02:43;;;;;;;5.05;1.55;;;;;;;26.98;65.24;100750.92;5105260;57;1139018;-80
2022/07/04 12:07:50;;;;;;;2.30;1.67;;;;;;;27.14;63.25;100753.92;4997388;59;1139083;-80
2022/07/04 12:13:14;;;;;;;2.42;1.32;;;;;;;27.13;62.93;100748.19;5132964;57;1139208;-80
2022/07/04 12:18:32;;;;;;;2.02;1.90;;;;;;;27.26;63.18;100739.91;5078417;58;1139029;-79
2022/07/04 12:23:33;;;;;;;1.62;1.50;;;;;;;27.46;59.90;100749.77;5078949;58;1138969;-80
2022/07/04 12:28:39;;;;;;;3.17;1.67;;;;;;;27.55;62.34;100740.27;5122489;57;1139133;-80
2022/07/04 12:33:56;;;;;;;1.70;1.60;;;;;;;27.82;63.10;100740.83;4970965;59;1139026;-78
2022/07/04 12:39:03;;;;;;;2.02;1.85;;;;;;;27.97;60.88;100735.84;5129943;56;1139134;-80
2022/07/04 12:44:08;;;;;;;2.13;2.00;;;;;;;28.14;61.39;100730.08;5080691;57;1138998;-82
2022/07/04 12:49:18;;;;;;;2.25;2.10;;;;;;;28.22;61.65;100727.09;5097651;57;1138295;-79
2022/07/04 12:54:23;;;;;;;3.42;2.20;;;;;;;28.39;58.92;100725.92;5121335;57;1138978;-81
2022/07/04 12:59:29;;;;;;;4.35;2.08;;;;;;;28.39;58.92;100725.92;5102138;57;1139011;-83
2022/07/04 13:04:36;;;;;;;2.25;2.08;;;;;;;28.33;58.97;100726.83;5133308;56;1139382;-81
2022/07/04 13:09:43;;;;;;;4.45;2.37;;;;;;;28.19;59.12;100730.80;5167086;56;1139066;-78
2022/07/04 13:14:49;;;;;;;3.10;2.20;;;;;;;27.84;58.51;100735.47;5160629;56;1138999;-82
2022/07/04 13:19:55;;;;;;;2.62;2.42;;;;;;;27.64;58.74;100735.72;5170416;56;1139133;-80
2022/07/04 13:25:03;;;;;;;2.42;2.30;;;;;;;27.64;58.33;100736.24;5160367;56;1139136;-79
2022/07/04 13:30:09;;;;;;;5.70;2.10;;;;;;;27.75;59.73;100725.14;5125618;56;1139397;-81
2022/07/04 13:35:14;;;;;;;3.30;1.92;;;;;;;27.90;59.61;100727.78;5053957;57;1139015;-79
2022/07/04 13:40:20;;;;;;;5.00;1.95;;;;;;;27.95;58.52;100725.22;5112292;57;1139298;-79
2022/07/04 13:45:27;;;;;;;1.95;1.85;;;;;;;27.93;57.95;100728.69;5116322;57;1139288;-78
2022/07/04 13:50:33;;;;;;;3.95;2.12;;;;;;;28.11;56.61;100719.66;5124347;57;1139024;-82
2022/07/04 13:55:39;;;;;;;2.22;2.05;;;;;;;28.31;57.82;100727.06;5149461;56;1139063;-80
2022/07/04 14:00:45;;;;;;;1.37;1.37;;;;;;;28.12;56.52;100729.48;5107742;56;1139087;-83
2022/07/04 14:05:51;;;;;;;1.87;1.57;;;;;;;27.98;56.12;100731.53;5143486;56;1139058;-78
2022/07/04 14:10:57;;;;;;;1.92;1.82;;;;;;;27.79;56.48;100735.87;5182975;56;1139016;-81
2022/07/04 14:16:05;;;;;;;2.35;1.90;;;;;;;27.42;55.38;100730.89;5238031;56;1139016;-79
2022/07/04 14:21:11;;;;;;;2.22;1.90;;;;;;;27.29;56.54;100711.48;5158864;57;1139003;-80
2022/07/04 14:26:19;;;;;;;3.58;2.05;;;;;;;27.43;56.01;100720.33;5187685;56;1139094;-75
2022/07/04 14:31:25;;;;;;;2.10;1.52;;;;;;;27.63;55.58;100725.07;5208242;56;1137012;-78
2022/07/04 14:36:30;;;;;;;4.65;1.98;;;;;;;27.83;55.84;100715.31;5159039;56;1136952;-80
2022/07/04 14:41:36;;;;;;;1.75;1.65;;;;;;;27.72;54.34;100722.88;5170755;56;1137113;-82
2022/07/04 14:46:42;;;;;;;1.70;1.60;;;;;;;27.55;55.68;100718.00;5237827;56;1136952;-82
2022/07/04 14:51:48;;;;;;;1.70;1.60;;;;;;;27.42;55.11;100715.42;5237895;56;1136983;-80
2022/07/04 14:56:54;;;;;;;1.67;1.47;;;;;;;27.33;56.44;100713.23;5178157;56;1137054;-80
2022/07/04 15:02:00;;;;;;;5.45;1.50;;;;;;;27.49;54.88;100714.84;5151542;57;1137002;-79
2022/07/04 15:07:06;;;;;;;3.15;1.90;;;;;;;27.63;52.84;100714.20;5158656;56;1136981;-80
2022/07/04 15:12:12;;;;;;;2.42;1.67;;;;;;;27.81;54.48;100720.14;5208498;56;1137224;-79
2022/07/04 15:17:18;;;;;;;3.90;1.90;;;;;;;27.98;55.16;100720.66;5174175;56;1136972;-79
2022/07/04 15:27:47;;;;;;;2.37;2.27;;;;;;;28.10;53.82;100715.84;5106570;57;1137039;-79
2022/07/04 15:32:53;;;;;;;6.00;2.15;;;;;;;27.99;52.90;100724.21;5086685;57;1137274;-78
2022/07/04 15:37:58;;;;;;;2.02;1.92;;;;;;;27.82;53.74;100714.48;5151211;57;1137033;-80
2022/07/04 15:43:05;;;;;;;3.52;1.98;;;;;;;27.90;52.42;100717.44;5151365;57;1136975;-78
2022/07/04 15:48:11;;;;;;;3.72;1.62;;;;;;;27.94;52.61;100711.32;5149388;57;1134952;-78
2022/07/04 15:53:16;;;;;;;2.60;1.20;;;;;;;27.99;51.25;100706.01;5147918;57;1134930;-78
2022/07/04 15:58:22;;;;;;;2.98;1.57;;;;;;;28.05;52.34;100698.84;5147916;57;1138985;-79
2022/07/04 16:03:28;;;;;;;2.20;1.50;;;;;;;28.14;53.05;100701.52;5147427;57;1139039;-80
2022/07/04 16:08:34;;;;;;;2.77;2.17;;;;;;;28.05;51.85;100700.20;5149939;56;1139009;-79
2022/07/04 16:13:40;;;;;;;2.17;1.53;;;;;;;28.11;52.86;100693.02;5142677;56;1139432;-79
2022/07/04 16:18:45;;;;;;;2.15;1.95;;;;;;;28.14;51.60;100697.45;5083366;56;1139003;-79
2022/07/04 16:23:51;;;;;;;7.08;1.98;;;;;;;27.98;51.23;100703.52;5187711;56;1139016;-78
2022/07/04 16:28:57;;;;;;;3.95;2.27;;;;;;;28.01;52.43;100701.17;5197470;56;1138937;-78
2022/07/04 16:34:03;;;;;;;6.45;2.58;;;;;;;28.06;50.73;100690.98;5158233;56;1139061;-78
2022/07/04 16:39:08;;;;;;;2.02;1.37;;;;;;;28.17;51.27;100692.08;5084912;56;1139120;-79
2022/07/04 16:44:14;;;;;;;4.15;1.00;;;;;;;28.21;50.74;100694.16;5116910;57;1139049;-79
2022/07/04 16:49:20;;;;;;;3.58;1.00;;;;;;;28.07;49.94;100687.73;5031294;58;1139445;-82
2022/07/04 16:54:26;;;;;;;5.50;2.02;;;;;;;27.96;49.19;100685.23;5119151;56;1139096;-79
2022/07/04 16:59:31;;;;;;;4.37;1.10;;;;;;;27.82;49.99;100695.45;5162099;57;1139366;-81
2022/07/04 17:04:37;;;;;;;2.98;1.52;;;;;;;27.80;49.29;100704.91;5162337;57;1139018;-81
2022/07/04 17:09:43;;;;;;;6.65;1.60;;;;;;;27.70;49.92;100702.70;5162388;57;1139206;-82
2022/07/04 17:14:49;;;;;;;1.67;1.40;;;;;;;27.72;50.27;100701.96;5162125;57;1138987;-82
2022/07/04 17:19:59;;;;;;;1.27;1.10;;;;;;;27.61;50.33;100706.80;5162321;57;1139559;-79
2022/07/04 17:25:06;;;;;;;1.32;1.12;;;;;;;27.49;50.51;100710.77;5162189;57;1139045;-82
2022/07/04 17:30:13;;;;;;;3.58;2.12;;;;;;;27.38;51.13;100710.12;5123206;57;1139031;-79
2022/07/04 17:35:19;;;;;;;4.28;3.00;;;;;;;27.36;51.47;100712.76;5162165;57;1139057;-83
2022/07/04 17:40:25;;;;;;;3.70;2.40;;;;;;;27.28;51.62;100701.67;5159460;57;1139103;-79
2022/07/04 17:45:31;;;;;;;5.47;1.82;;;;;;;27.14;51.91;100703.69;5151158;57;1139232;-81
2022/07/04 17:50:36;;;;;;;30.85;17.10;;;;;;;26.98;52.85;100710.20;5150890;57;1139305;-79
2022/07/04 17:55:42;;;;;;;59.67;46.05;;;;;;;26.98;52.85;100710.20;5150913;56;1143488;-79
2022/07/04 18:00:48;;;;;;;741.35;663.33;;;;;;;26.91;51.97;100711.05;5150899;56;1143168;-81
2022/07/04 18:05:54;;;;;;;448.02;406.57;;;;;;;26.80;52.15;100721.27;5150826;57;1147561;-78
2022/07/04 18:10:59;;;;;;;59.42;53.55;;;;;;;26.72;51.93;100716.64;5150712;57;1147424;-80
2022/07/04 18:16:05;;;;;;;15.43;13.28;;;;;;;26.48;52.12;100729.09;5150818;56;1143210;-78
2022/07/04 18:21:11;;;;;;;12.55;9.63;;;;;;;26.27;52.24;100724.82;5150968;56;1143333;-80
2022/07/04 18:26:18;;;;;;;9.18;4.55;;;;;;;26.15;52.55;100742.27;5123043;56;1141540;-78
2022/07/04 18:31:23;;;;;;;12.60;10.93;;;;;;;26.07;52.54;100746.59;4961251;59;1139089;-79
2022/07/04 18:36:29;;;;;;;21.95;19.32;;;;;;;25.91;52.65;100758.74;5140864;57;1143193;-78
2022/07/04 18:47:00;;;;;;;11.73;8.35;;;;;;;25.82;53.32;100769.48;5141802;57;1143176;-81
2022/07/04 18:52:06;;;;;;;22.73;20.27;;;;;;;25.68;53.62;100769.73;5141899;57;1141141;-81
2022/07/04 18:57:14;;;;;;;11.10;9.88;;;;;;;25.54;54.28;100775.66;5141966;57;1143548;-79
2022/07/04 19:02:19;;;;;;;3.52;3.20;;;;;;;25.39;54.70;100785.37;5148745;56;1139303;-78
2022/07/04 19:07:26;;;;;;;8.70;5.92;;;;;;;25.22;55.29;100793.08;5177069;56;1137065;-77
2022/07/04 19:12:33;;;;;;;14.90;9.70;;;;;;;25.27;56.28;100796.52;5191901;56;1136953;-81
2022/07/04 19:17:39;;;;;;;12.10;8.43;;;;;;;25.23;56.85;100802.03;5195473;56;1139010;-81
2022/07/04 19:22:45;;;;;;;23.07;17.35;;;;;;;25.23;56.99;100809.63;5137625;57;1139091;-81
2022/07/04 19:27:51;;;;;;;10.68;4.25;;;;;;;25.22;57.55;100804.42;5196787;56;1141366;-79
2022/07/04 19:32:57;;;;;;;6.40;5.53;;;;;;;25.24;57.96;100811.82;5204767;56;1139075;-79
2022/07/04 19:38:03;;;;;;;12.75;6.67;;;;;;;25.18;57.64;100815.38;5198278;56;1136918;-81
2022/07/04 19:43:09;;;;;;;7.55;5.75;;;;;;;24.94;57.56;100818.14;5230079;56;1138988;-82
2022/07/04 19:48:16;;;;;;;13.05;7.50;;;;;;;24.91;58.37;100827.98;5184993;56;1136977;-79
2022/07/04 19:53:21;;;;;;;7.00;5.60;;;;;;;24.87;58.37;100831.64;5227040;56;1139072;-80
2022/07/04 19:58:27;;;;;;;15.98;3.92;;;;;;;24.74;57.89;100839.73;5153647;56;1136933;-82
2022/07/04 20:03:33;;;;;;;5.10;4.47;;;;;;;24.57;57.96;100842.98;5162026;56;1139332;-82
2022/07/04 20:08:39;;;;;;;6.03;3.25;;;;;;;24.47;58.06;100848.23;5158265;56;1136922;-80
2022/07/04 20:13:45;;;;;;;6.20;2.95;;;;;;;24.39;58.17;100870.58;5226538;56;1136996;-80
2022/07/04 20:18:51;;;;;;;17.15;2.50;;;;;;;24.29;58.81;100872.27;5213704;56;1136934;-81
2022/07/04 20:23:57;;;;;;;5.53;3.00;;;;;;;24.14;58.96;100874.23;5156090;56;1139087;-80
2022/07/04 20:29:03;;;;;;;4.58;3.30;;;;;;;24.11;59.23;100871.95;5230392;56;1137025;-78
2022/07/04 20:34:08;;;;;;;4.92;3.80;;;;;;;24.14;59.57;100872.36;5239873;56;1134904;-79
2022/07/04 20:39:14;;;;;;;6.80;3.12;;;;;;;24.07;59.30;100867.97;5200369;56;1135007;-79
2022/07/04 20:44:21;;;;;;;11.78;3.83;;;;;;;24.00;59.64;100877.89;5239711;56;1139071;-78
2022/07/04 20:49:28;;;;;;;14.40;4.57;;;;;;;23.93;60.05;100877.02;5228050;56;1141092;-77
2022/07/04 20:54:34;;;;;;;8.95;5.03;;;;;;;23.88;59.99;100886.22;5196234;56;1141158;-80
2022/07/04 20:59:40;;;;;;;13.53;6.40;;;;;;;23.65;60.04;100890.02;5195184;56;1139133;-80
2022/07/04 21:04:46;;;;;;;18.10;8.88;;;;;;;23.62;60.78;100890.91;5198621;56;1141173;-79
2022/07/04 21:09:51;;;;;;;15.08;6.25;;;;;;;23.64;60.90;100890.20;5211441;56;1141094;-78
2022/07/04 21:14:57;;;;;;;20.88;6.15;;;;;;;23.56;61.07;100888.98;5187248;56;1141106;-80
2022/07/04 21:20:03;;;;;;;15.30;5.65;;;;;;;23.43;61.48;100889.16;5195924;56;1141037;-78
2022/07/04 21:25:09;;;;;;;10.93;5.60;;;;;;;23.24;61.87;100891.14;5173416;56;1141393;-77
2022/07/04 21:30:15;;;;;;;11.95;4.58;;;;;;;22.87;62.32;100895.42;5188816;56;1141265;-77
2022/07/04 21:35:21;;;;;;;11.93;4.85;;;;;;;22.56;63.19;100906.41;5194691;56;1141078;-77
2022/07/04 21:40:28;;;;;;;9.98;4.42;;;;;;;22.43;64.28;100907.08;5198546;56;1141426;-78
2022/07/04 21:45:34;;;;;;;10.82;4.97;;;;;;;22.48;65.11;100920.81;5197571;56;1139341;-78
2022/07/04 21:50:39;;;;;;;11.05;5.45;;;;;;;22.50;65.17;100921.98;5191334;56;1141135;-79
2022/07/04 21:55:46;;;;;;;9.60;5.47;;;;;;;22.40;64.53;100924.45;5208015;56;1141089;-79
2022/07/04 22:00:52;;;;;;;7.83;4.28;;;;;;;22.16;64.22;100930.60;5239646;56;1138996;-79
2022/07/04 22:05:57;;;;;;;8.45;3.62;;;;;;;22.06;64.98;100939.80;5238802;56;1139148;-79
2022/07/04 22:11:05;;;;;;;4.92;3.60;;;;;;;22.01;65.64;100948.09;5178757;56;1139132;-79
2022/07/04 22:16:11;;;;;;;5.55;3.95;;;;;;;22.02;65.91;100949.77;5239285;56;1139257;-80
2022/07/04 22:21:17;;;;;;;7.30;3.37;;;;;;;21.95;66.03;100948.30;5239471;56;1139016;-79
2022/07/04 22:26:22;;;;;;;6.72;2.52;;;;;;;21.79;65.93;100949.79;5179437;56;1139030;-80
2022/07/04 22:31:28;;;;;;;3.82;2.38;;;;;;;21.74;66.17;100948.14;5066445;58;1139027;-77
2022/07/04 22:36:33;;;;;;;4.67;2.72;;;;;;;21.62;66.28;100948.25;5056761;58;1139090;-78
2022/07/04 22:41:39;;;;;;;7.58;2.33;;;;;;;21.53;66.88;100953.38;5054047;58;1138691;-81
2022/07/04 22:46:46;;;;;;;4.42;2.40;;;;;;;21.47;67.11;100952.73;5023965;57;1139212;-78
2022/07/04 22:51:51;;;;;;;4.05;2.12;;;;;;;21.46;67.54;100954.59;4981266;59;1139078;-79
2022/07/04 22:56:57;;;;;;;3.02;2.20;;;;;;;21.44;67.65;100957.96;5047277;58;1139046;-78
2022/07/04 23:02:02;;;;;;;6.30;2.55;;;;;;;21.26;67.46;100956.05;5076690;58;1139095;-79
2022/07/04 23:07:08;;;;;;;7.08;2.77;;;;;;;20.94;67.88;100970.48;5037602;58;1139165;-78
2022/07/04 23:12:15;;;;;;;5.25;3.10;;;;;;;20.53;68.47;100964.44;5033591;58;1139126;-79
2022/07/04 23:17:21;;;;;;;7.67;3.37;;;;;;;20.50;69.87;100970.99;4989877;59;1139032;-77
2022/07/04 23:22:26;;;;;;;6.60;3.08;;;;;;;20.53;69.85;100975.19;4989904;59;1139060;-78
2022/07/04 23:27:32;;;;;;;6.37;2.85;;;;;;;20.55;70.02;100979.89;5080284;57;1139266;-78
2022/07/04 23:32:38;;;;;;;5.03;3.15;;;;;;;20.46;70.33;100975.05;5108875;57;1139038;-79